createdAt,value
2019-03-11T00:02:09.347Z,4.20
2019-03-11T00:04:38.176Z,4.20
2019-03-11T00:07:06.974Z,4.20
2019-03-11T00:09:35.992Z,4.20
2019-03-11T00:12:05.382Z,4.20
2019-03-11T00:14:34.285Z,4.20
2019-03-11T00:17:03.540Z,4.20
2019-03-11T00:19:32.345Z,4.30
2019-03-11T00:22:01.253Z,4.30
2019-03-11T00:24:30.128Z,4.40
2019-03-11T00:26:58.928Z,4.50
2019-03-11T00:29:27.795Z,4.60
2019-03-11T00:31:56.832Z,4.60
2019-03-11T00:34:25.796Z,4.70
2019-03-11T00:36:54.750Z,4.80
2019-03-11T00:39:23.894Z,4.80
2019-03-11T00:41:52.702Z,4.90
2019-03-11T00:44:21.628Z,4.90
2019-03-11T00:46:50.679Z,4.90
2019-03-11T00:49:19.501Z,5.00
2019-03-11T00:51:48.367Z,5.00
2019-03-11T00:54:17.151Z,5.00
2019-03-11T00:56:46.304Z,4.90
2019-03-11T00:59:15.133Z,4.90
2019-03-11T01:01:44.038Z,4.90
2019-03-11T01:04:13.089Z,4.90
2019-03-11T01:06:42.513Z,4.90
2019-03-11T01:09:11.691Z,4.80
2019-03-11T01:11:40.502Z,4.80
2019-03-11T01:14:09.543Z,4.80
2019-03-11T01:16:38.452Z,4.80
2019-03-11T01:19:07.574Z,4.80
2019-03-11T01:21:36.741Z,4.90
2019-03-11T01:24:05.932Z,4.90
2019-03-11T01:26:35.055Z,4.90
2019-03-11T01:29:03.971Z,4.90
2019-03-11T01:31:34.024Z,4.90
2019-03-11T01:34:03.338Z,5.00
2019-03-11T01:36:32.240Z,5.00
2019-03-11T01:39:01.184Z,5.00
2019-03-11T01:41:30.149Z,5.00
2019-03-11T01:44:05.005Z,5.10
2019-03-11T01:46:33.795Z,5.10
2019-03-11T01:49:02.587Z,5.10
2019-03-11T01:51:31.407Z,5.10
2019-03-11T01:54:00.269Z,5.10
2019-03-11T01:56:29.259Z,5.10
2019-03-11T01:58:58.513Z,5.20
2019-03-11T02:01:27.634Z,5.20
2019-03-11T02:03:56.928Z,5.20
2019-03-11T02:06:25.730Z,5.20
2019-03-11T02:08:54.804Z,5.20
2019-03-11T02:11:24.111Z,5.20
2019-03-11T02:13:52.891Z,5.20
2019-03-11T02:16:22.112Z,5.20
2019-03-11T02:18:50.928Z,5.30
2019-03-11T02:21:20.027Z,5.30
2019-03-11T02:23:49.155Z,5.30
2019-03-11T02:26:18.080Z,5.40
2019-03-11T02:28:46.971Z,5.40
2019-03-11T02:31:15.950Z,5.40
2019-03-11T02:33:45.170Z,5.40
2019-03-11T02:36:13.957Z,5.40
2019-03-11T02:38:42.920Z,5.40
2019-03-11T02:41:11.835Z,5.40
2019-03-11T02:43:40.638Z,5.40
2019-03-11T02:46:09.999Z,5.30
2019-03-11T02:48:38.800Z,5.40
2019-03-11T02:51:07.680Z,5.40
2019-03-11T02:53:36.498Z,5.40
2019-03-11T02:56:05.383Z,5.40
2019-03-11T02:58:34.294Z,5.50
2019-03-11T03:01:22.312Z,5.50
2019-03-11T03:04:01.974Z,5.50
2019-03-11T03:06:31.080Z,5.60
2019-03-11T03:09:00.376Z,5.60
2019-03-11T03:11:29.942Z,5.60
2019-03-11T03:13:58.765Z,5.60
2019-03-11T03:16:27.700Z,5.60
2019-03-11T03:18:56.595Z,5.70
2019-03-11T03:21:26.169Z,5.70
2019-03-11T03:23:55.058Z,5.70
2019-03-11T03:26:24.296Z,5.70
2019-03-11T03:28:53.435Z,5.70
2019-03-11T03:31:22.312Z,5.70
2019-03-11T03:33:51.526Z,5.80
2019-03-11T03:36:20.411Z,5.80
2019-03-11T03:38:49.545Z,5.80
2019-03-11T03:41:18.742Z,5.70
2019-03-11T03:43:47.631Z,5.00
2019-03-11T03:46:19.272Z,4.60
2019-03-11T03:48:47.455Z,4.40
2019-03-11T03:51:16.467Z,4.10
2019-03-11T03:53:45.433Z,4.00
2019-03-11T03:56:14.240Z,3.90
2019-03-11T03:58:43.621Z,3.90
2019-03-11T04:01:12.634Z,3.80
2019-03-11T04:03:41.428Z,3.80
2019-03-11T04:06:10.528Z,3.80
2019-03-11T04:08:39.768Z,3.80
2019-03-11T04:11:08.714Z,3.80
2019-03-11T04:13:37.595Z,3.80
2019-03-11T04:16:06.472Z,3.90
2019-03-11T04:18:51.966Z,3.90
2019-03-11T04:21:21.262Z,3.90
2019-03-11T04:23:50.247Z,3.90
2019-03-11T04:26:19.171Z,4.00
2019-03-11T04:28:48.119Z,4.00
2019-03-11T04:31:17.270Z,4.10
2019-03-11T04:33:46.179Z,4.00
2019-03-11T04:36:14.986Z,4.00
2019-03-11T04:38:43.762Z,4.00
2019-03-11T04:41:13.094Z,3.90
2019-03-11T04:43:41.900Z,3.90
2019-03-11T04:46:10.943Z,3.90
2019-03-11T04:48:39.765Z,3.90
2019-03-11T04:51:08.570Z,3.90
2019-03-11T04:53:37.463Z,3.80
2019-03-11T04:56:06.620Z,3.80
2019-03-11T04:58:35.715Z,3.90
2019-03-11T05:01:04.947Z,3.90
2019-03-11T05:03:33.987Z,3.90
2019-03-11T05:06:02.942Z,3.90
2019-03-11T05:08:31.751Z,3.90
2019-03-11T05:11:00.570Z,3.90
2019-03-11T05:13:29.628Z,3.80
2019-03-11T05:15:58.900Z,3.60
2019-03-11T05:18:27.782Z,3.30
2019-03-11T05:20:56.811Z,3.10
2019-03-11T05:23:25.686Z,3.00
2019-03-11T05:25:54.482Z,3.00
2019-03-11T05:28:23.758Z,2.90
2019-03-11T05:30:52.556Z,2.80
2019-03-11T05:33:21.708Z,2.80
2019-03-11T05:35:50.594Z,2.70
2019-03-11T05:38:19.604Z,2.70
2019-03-11T05:40:48.515Z,2.80
2019-03-11T05:43:17.640Z,2.90
2019-03-11T05:45:46.678Z,2.90
2019-03-11T05:48:15.557Z,2.90
2019-03-11T05:50:44.648Z,3.00
2019-03-11T05:53:13.539Z,3.00
2019-03-11T05:55:42.396Z,3.00
2019-03-11T05:58:11.434Z,3.00
2019-03-11T06:00:40.231Z,3.00
2019-03-11T06:03:09.064Z,3.00
2019-03-11T06:05:37.873Z,3.00
2019-03-11T06:08:06.876Z,2.90
2019-03-11T06:10:35.761Z,2.90
2019-03-11T06:13:04.705Z,2.80
2019-03-11T06:15:33.631Z,2.80
2019-03-11T06:18:02.723Z,2.70
2019-03-11T06:20:39.777Z,2.60
2019-03-11T06:23:09.914Z,2.40
2019-03-11T06:25:39.035Z,2.40
2019-03-11T06:28:08.446Z,2.40
2019-03-11T06:30:37.979Z,2.30
2019-03-11T06:33:06.966Z,2.30
2019-03-11T06:35:36.240Z,2.20
2019-03-11T06:38:05.445Z,2.30
2019-03-11T06:40:34.363Z,2.30
2019-03-11T06:43:03.362Z,2.40
2019-03-11T06:45:32.637Z,2.40
2019-03-11T06:48:01.629Z,2.50
2019-03-11T06:50:30.427Z,2.50
2019-03-11T06:52:59.528Z,2.50
2019-03-11T06:55:28.440Z,2.60
2019-03-11T06:57:57.903Z,2.60
2019-03-11T07:00:26.813Z,2.80
2019-03-11T07:02:55.690Z,2.80
2019-03-11T07:05:24.892Z,2.80
2019-03-11T07:07:53.691Z,2.80
2019-03-11T07:10:22.561Z,2.90
2019-03-11T07:12:51.604Z,3.00
2019-03-11T07:15:20.392Z,3.00
2019-03-11T07:17:49.179Z,3.10
2019-03-11T07:20:18.246Z,3.20
2019-03-11T07:22:47.462Z,3.30
2019-03-11T07:25:16.778Z,3.40
2019-03-11T07:27:45.586Z,3.50
2019-03-11T07:30:14.666Z,3.60
2019-03-11T07:32:43.735Z,3.70
2019-03-11T07:35:12.704Z,3.80
2019-03-11T07:37:41.842Z,3.90
2019-03-11T07:40:10.838Z,3.90
2019-03-11T07:42:39.734Z,4.00
2019-03-11T07:45:08.855Z,4.10
2019-03-11T07:47:37.792Z,4.10
2019-03-11T07:50:07.136Z,4.20
2019-03-11T07:52:36.024Z,4.30
2019-03-11T07:55:05.316Z,4.40
2019-03-11T07:57:34.543Z,4.50
2019-03-11T08:00:03.904Z,4.70
2019-03-11T08:02:32.972Z,4.80
2019-03-11T08:05:02.483Z,5.00
2019-03-11T08:07:31.347Z,5.00
2019-03-11T08:10:00.857Z,5.10
2019-03-11T08:12:29.799Z,5.10
2019-03-11T08:14:58.634Z,5.20
2019-03-11T08:17:27.468Z,5.20
2019-03-11T08:20:07.600Z,5.30
2019-03-11T08:22:44.697Z,5.20
2019-03-11T08:25:15.414Z,5.20
2019-03-11T08:27:49.470Z,5.20
2019-03-11T08:30:25.279Z,5.20
2019-03-11T08:32:55.191Z,5.20
2019-03-11T08:35:25.209Z,5.20
2019-03-11T08:37:57.373Z,5.20
2019-03-11T08:40:30.143Z,5.20
2019-03-11T08:43:01.067Z,5.30
2019-03-11T08:45:31.313Z,5.30
2019-03-11T08:48:01.333Z,5.40
2019-03-11T08:50:36.781Z,5.50
2019-03-11T08:53:09.347Z,5.50
2019-03-11T08:55:43.676Z,5.60
2019-03-11T08:58:19.221Z,5.70
2019-03-11T09:00:51.836Z,5.70
2019-03-11T09:03:29.289Z,5.70
2019-03-11T09:06:02.070Z,5.60
2019-03-11T09:08:36.901Z,5.60
2019-03-11T09:11:07.937Z,5.50
2019-03-11T09:13:43.383Z,5.50
2019-03-11T09:16:26.303Z,5.50
2019-03-11T09:18:56.303Z,5.40
2019-03-11T09:21:30.135Z,5.30
2019-03-11T09:24:04.378Z,5.30
2019-03-11T09:26:34.091Z,5.30
2019-03-11T09:29:11.035Z,5.30
2019-03-11T09:31:51.091Z,5.10
2019-03-11T09:34:19.765Z,5.10
2019-03-11T09:36:52.657Z,5.00
2019-03-11T09:39:29.608Z,4.90
2019-03-11T09:42:02.011Z,4.70
2019-03-11T09:44:37.251Z,4.50
2019-03-11T09:47:11.467Z,4.50
2019-03-11T09:49:44.147Z,4.40
2019-03-11T09:52:15.906Z,4.30
2019-03-11T09:54:49.507Z,4.40
2019-03-11T09:57:23.057Z,4.30
2019-03-11T09:59:55.667Z,4.30
2019-03-11T10:02:27.823Z,4.30
2019-03-11T10:04:58.228Z,4.40
2019-03-11T10:07:28.300Z,4.60
2019-03-11T10:10:10.861Z,4.80
2019-03-11T10:12:40.575Z,5.10
2019-03-11T10:15:12.631Z,5.00
2019-03-11T10:17:46.185Z,5.00
2019-03-11T10:20:17.844Z,5.00
2019-03-11T10:22:50.895Z,5.20
2019-03-11T10:25:25.783Z,5.30
2019-03-11T10:28:06.227Z,5.40
2019-03-11T10:30:52.695Z,5.30
2019-03-11T10:33:27.048Z,5.30
2019-03-11T10:35:56.612Z,5.30
2019-03-11T10:38:28.890Z,5.30
2019-03-11T10:41:05.141Z,5.20
2019-03-11T10:43:36.398Z,5.20
2019-03-11T10:46:22.390Z,5.20
2019-03-11T10:48:52.405Z,5.30
2019-03-11T10:51:28.218Z,5.40
2019-03-11T10:54:06.775Z,5.50
2019-03-11T10:56:47.339Z,5.60
2019-03-11T10:59:21.329Z,5.50
2019-03-11T11:02:03.146Z,5.50
2019-03-11T11:04:37.489Z,5.50
2019-03-11T11:07:12.557Z,5.40
2019-03-11T11:09:45.438Z,5.30
2019-03-11T11:12:22.112Z,5.40
2019-03-11T11:14:53.773Z,5.50
2019-03-11T11:17:34.645Z,5.60
2019-03-11T11:20:26.575Z,5.70
2019-03-11T11:23:10.229Z,5.70
2019-03-11T11:25:43.811Z,5.80
2019-03-11T11:28:15.158Z,5.80
2019-03-11T11:30:50.368Z,5.80
2019-03-11T11:33:21.037Z,5.90
2019-03-11T11:35:59.646Z,5.90
2019-03-11T11:38:37.748Z,5.90
2019-03-11T11:41:12.992Z,5.90
2019-03-11T11:43:47.206Z,5.90
2019-03-11T11:46:22.210Z,5.90
2019-03-11T11:48:54.938Z,5.90
2019-03-11T11:51:37.399Z,5.80
2019-03-11T11:54:35.267Z,5.80
2019-03-11T11:57:07.688Z,5.90
2019-03-11T11:59:39.355Z,5.90
2019-03-11T12:02:13.751Z,6.00
2019-03-11T12:04:58.616Z,6.00
2019-03-11T12:07:40.206Z,6.00
2019-03-11T12:10:20.381Z,6.10
2019-03-11T12:12:56.292Z,6.20
2019-03-11T12:15:33.811Z,6.20
2019-03-11T12:18:13.411Z,6.30
2019-03-11T12:20:48.695Z,6.30
2019-03-11T12:23:22.496Z,6.30
2019-03-11T12:25:57.538Z,6.30
2019-03-11T12:28:28.127Z,6.30
2019-03-11T12:30:58.800Z,6.30
2019-03-11T12:33:28.340Z,6.30
2019-03-11T12:35:58.247Z,6.20
2019-03-11T12:38:37.046Z,6.20
2019-03-11T12:41:11.447Z,6.30
2019-03-11T12:43:47.731Z,6.30
2019-03-11T12:46:21.793Z,6.30
2019-03-11T12:48:52.067Z,6.30
2019-03-11T12:51:20.902Z,6.40
2019-03-11T12:53:49.947Z,6.40
2019-03-11T12:56:19.015Z,6.40
2019-03-11T12:58:47.996Z,6.50
2019-03-11T13:01:16.903Z,6.50
2019-03-11T13:03:45.850Z,6.50
2019-03-11T13:06:14.909Z,6.50
2019-03-11T13:08:43.760Z,6.50
2019-03-11T13:11:12.636Z,6.60
2019-03-11T13:13:41.444Z,6.60
2019-03-11T13:16:10.314Z,6.60
2019-03-11T13:18:41.432Z,6.70
2019-03-11T13:21:16.387Z,6.70
2019-03-11T13:23:45.507Z,6.70
2019-03-11T13:26:14.398Z,6.70
2019-03-11T13:28:43.179Z,6.80
2019-03-11T13:31:12.050Z,6.80
2019-03-11T13:33:40.918Z,6.80
2019-03-11T13:36:10.079Z,6.90
2019-03-11T13:38:39.044Z,6.90
2019-03-11T13:41:08.027Z,6.90
2019-03-11T13:43:38.557Z,6.90
2019-03-11T13:46:07.732Z,6.90
2019-03-11T13:48:36.667Z,6.90
2019-03-11T13:51:05.789Z,7.00
2019-03-11T13:53:34.663Z,6.90
2019-03-11T13:56:03.797Z,6.80
2019-03-11T13:58:33.330Z,6.80
2019-03-11T14:01:02.311Z,6.80
2019-03-11T14:03:31.251Z,6.90
2019-03-11T14:06:00.200Z,7.00
2019-03-11T14:08:29.451Z,7.00
2019-03-11T14:10:58.342Z,7.00
2019-03-11T14:13:27.582Z,7.10
2019-03-11T14:15:57.333Z,7.10
2019-03-11T14:18:26.775Z,7.10
2019-03-11T14:20:55.654Z,7.10
2019-03-11T14:23:24.596Z,7.10
2019-03-11T14:25:54.332Z,7.10
2019-03-11T14:28:23.583Z,7.00
2019-03-11T14:30:52.678Z,6.90
2019-03-11T14:33:21.643Z,6.90
2019-03-11T14:35:52.191Z,6.90
2019-03-11T14:38:21.782Z,6.90
2019-03-11T14:40:50.741Z,6.90
2019-03-11T14:43:19.718Z,6.90
2019-03-11T14:45:49.126Z,6.90
2019-03-11T14:48:18.538Z,6.80
2019-03-11T14:50:47.426Z,6.80
2019-03-11T14:53:16.728Z,6.80
2019-03-11T14:55:45.614Z,6.80
2019-03-11T14:58:14.707Z,6.90
2019-03-11T15:00:43.719Z,6.90
2019-03-11T15:03:12.623Z,6.90
2019-03-11T15:05:44.159Z,6.90
2019-03-11T15:08:13.176Z,6.90
2019-03-11T15:10:42.134Z,6.90
2019-03-11T15:13:10.955Z,6.90
2019-03-11T15:15:40.021Z,6.90
2019-03-11T15:18:09.134Z,6.90
2019-03-11T15:20:38.142Z,6.70
2019-03-11T15:23:19.002Z,6.40
2019-03-11T15:25:37.958Z,6.00
2019-03-11T15:28:07.191Z,5.50
2019-03-11T15:30:36.218Z,5.30
2019-03-11T15:33:05.390Z,5.20
2019-03-11T15:35:34.487Z,5.20
2019-03-11T15:38:03.627Z,5.30
2019-03-11T15:40:32.507Z,5.40
2019-03-11T15:43:01.754Z,5.40
2019-03-11T15:45:38.061Z,5.60
2019-03-11T15:48:01.171Z,5.70
2019-03-11T15:50:30.248Z,5.80
2019-03-11T15:52:59.223Z,5.90
2019-03-11T15:55:28.374Z,6.10
2019-03-11T15:57:57.338Z,6.10
2019-03-11T16:00:27.536Z,6.20
2019-03-11T16:02:56.654Z,6.20
2019-03-11T16:05:25.546Z,6.30
2019-03-11T16:07:54.470Z,6.30
2019-03-11T16:10:23.543Z,6.20
2019-03-11T16:12:52.728Z,6.10
2019-03-11T16:15:21.674Z,6.10
2019-03-11T16:17:50.679Z,6.10
2019-03-11T16:20:19.886Z,6.00
2019-03-11T16:22:48.829Z,6.00
2019-03-11T16:25:17.802Z,6.10
2019-03-11T16:27:46.806Z,6.20
2019-03-11T16:30:19.844Z,6.30
2019-03-11T16:32:58.190Z,6.40
2019-03-11T16:35:19.942Z,6.40
2019-03-11T16:37:49.191Z,6.50
2019-03-11T16:40:18.226Z,6.70
2019-03-11T16:42:47.108Z,6.80
2019-03-11T16:45:17.370Z,6.80
2019-03-11T16:47:46.327Z,6.90
2019-03-11T16:50:16.050Z,6.90
2019-03-11T16:52:45.278Z,7.10
2019-03-11T16:55:15.162Z,7.20
2019-03-11T16:57:46.040Z,7.40
2019-03-11T17:00:19.096Z,7.30
2019-03-11T17:02:48.062Z,7.20
2019-03-11T17:05:17.306Z,7.30
2019-03-11T17:07:46.247Z,7.20
2019-03-11T17:10:15.476Z,7.20
2019-03-11T17:12:44.319Z,7.10
2019-03-11T17:15:13.815Z,7.10
2019-03-11T17:17:42.781Z,7.00
2019-03-11T17:20:12.331Z,6.90
2019-03-11T17:22:41.279Z,6.90
2019-03-11T17:25:10.997Z,6.90
2019-03-11T17:27:39.983Z,6.90
2019-03-11T17:30:11.087Z,6.80
2019-03-11T17:32:40.303Z,6.70
2019-03-11T17:35:09.716Z,6.70
2019-03-11T17:37:38.879Z,6.70
2019-03-11T17:40:09.351Z,6.70
2019-03-11T17:42:38.647Z,6.70
2019-03-11T17:45:08.498Z,6.70
2019-03-11T17:47:37.882Z,6.70
2019-03-11T17:50:08.235Z,6.70
2019-03-11T17:52:37.733Z,6.70
2019-03-11T17:55:07.105Z,6.60
2019-03-11T17:57:36.056Z,6.60
2019-03-11T18:00:07.250Z,6.60
2019-03-11T18:02:36.165Z,6.60
2019-03-11T18:05:05.294Z,6.50
2019-03-11T18:07:34.595Z,6.40
2019-03-11T18:10:03.516Z,6.50
2019-03-11T18:12:32.558Z,6.40
2019-03-11T18:15:01.845Z,6.50
2019-03-11T18:17:30.646Z,6.40
2019-03-11T18:19:59.590Z,6.50
2019-03-11T18:22:28.482Z,6.40
2019-03-11T18:24:57.578Z,6.40
2019-03-11T18:27:26.586Z,6.40
2019-03-11T18:29:55.446Z,6.40
2019-03-11T18:32:25.664Z,6.30
2019-03-11T18:34:54.600Z,6.30
2019-03-11T18:37:23.715Z,6.30
2019-03-11T18:39:52.916Z,6.30
2019-03-11T18:42:26.273Z,6.30
2019-03-11T18:44:53.162Z,6.20
2019-03-11T18:47:22.002Z,6.20
2019-03-11T18:49:50.839Z,6.20
2019-03-11T18:52:19.967Z,6.20
2019-03-11T18:54:49.395Z,6.20
2019-03-11T18:57:18.290Z,6.20
2019-03-11T18:59:47.370Z,6.20
2019-03-11T19:02:16.249Z,6.20
2019-03-11T19:04:45.119Z,6.30
2019-03-11T19:07:14.062Z,6.20
2019-03-11T19:09:43.310Z,6.30
2019-03-11T19:12:12.307Z,6.30
2019-03-11T19:14:41.523Z,6.30
2019-03-11T19:17:10.335Z,6.30
2019-03-11T19:19:46.085Z,6.40
2019-03-11T19:22:10.064Z,6.40
2019-03-11T19:24:39.015Z,6.40
2019-03-11T19:27:09.213Z,6.30
2019-03-11T19:29:38.671Z,6.20
2019-03-11T19:32:07.859Z,6.20
2019-03-11T19:34:36.890Z,6.20
2019-03-11T19:37:06.106Z,6.20
2019-03-11T19:39:35.598Z,6.20
2019-03-11T19:42:05.295Z,6.20
2019-03-11T19:44:37.522Z,6.20
2019-03-11T19:47:09.738Z,6.30
2019-03-11T19:49:39.236Z,6.30
2019-03-11T19:52:09.107Z,6.30
2019-03-11T19:54:38.671Z,6.30
2019-03-11T19:57:08.016Z,6.30
2019-03-11T19:59:37.840Z,6.20
2019-03-11T20:02:07.399Z,6.30
2019-03-11T20:04:36.552Z,6.40
2019-03-11T20:07:06.158Z,6.40
2019-03-11T20:09:35.857Z,6.40
2019-03-11T20:12:04.777Z,6.30
2019-03-11T20:14:33.731Z,6.30
2019-03-11T20:17:02.688Z,6.30
2019-03-11T20:19:31.591Z,6.40
2019-03-11T20:22:00.632Z,6.30
2019-03-11T20:24:29.648Z,6.30
2019-03-11T20:26:58.961Z,6.40
2019-03-11T20:29:28.161Z,6.40
2019-03-11T20:31:57.129Z,6.40
2019-03-11T20:34:26.485Z,6.30
2019-03-11T20:36:55.638Z,6.30
2019-03-11T20:39:24.793Z,6.30
2019-03-11T20:41:53.670Z,6.30
2019-03-11T20:44:22.658Z,6.40
2019-03-11T20:46:51.575Z,6.40
2019-03-11T20:49:20.474Z,6.40
2019-03-11T20:51:49.333Z,6.40
2019-03-11T20:54:18.227Z,6.30
2019-03-11T20:56:47.134Z,6.30
2019-03-11T20:59:16.065Z,6.30
2019-03-11T21:01:45.012Z,6.30
2019-03-11T21:04:13.930Z,6.30
2019-03-11T21:06:42.825Z,6.30
2019-03-11T21:09:11.702Z,6.20
2019-03-11T21:11:40.865Z,6.20
2019-03-11T21:14:10.260Z,6.20
2019-03-11T21:16:39.238Z,6.20
2019-03-11T21:19:08.459Z,6.20
2019-03-11T21:21:37.329Z,6.20
2019-03-11T21:24:06.329Z,6.10
2019-03-11T21:26:35.317Z,6.10
2019-03-11T21:29:04.273Z,6.20
2019-03-11T21:31:33.359Z,6.20
2019-03-11T21:34:02.203Z,6.10
2019-03-11T21:36:31.129Z,6.10
2019-03-11T21:39:00.410Z,6.10
2019-03-11T21:41:29.573Z,6.10
2019-03-11T21:43:58.456Z,6.10
2019-03-11T21:46:27.313Z,6.10
2019-03-11T21:48:56.242Z,6.10
2019-03-11T21:51:25.227Z,6.10
2019-03-11T21:53:54.522Z,6.10
2019-03-11T21:56:23.490Z,6.10
2019-03-11T21:58:52.568Z,6.10
2019-03-11T22:01:21.532Z,6.10
2019-03-11T22:03:50.342Z,6.10
2019-03-11T22:06:19.335Z,6.20
2019-03-11T22:08:48.203Z,6.10
2019-03-11T22:11:17.110Z,6.10
2019-03-11T22:13:46.260Z,6.10
2019-03-11T22:16:15.128Z,6.10
2019-03-11T22:18:43.948Z,6.20
2019-03-11T22:21:12.943Z,6.20
2019-03-11T22:23:44.491Z,6.20
2019-03-11T22:26:13.362Z,6.10
2019-03-11T22:28:42.358Z,6.00
2019-03-11T22:31:11.143Z,6.00
2019-03-11T22:33:40.063Z,6.00
2019-03-11T22:36:08.978Z,6.00
2019-03-11T22:38:38.619Z,5.90
2019-03-11T22:41:07.575Z,5.90
2019-03-11T22:43:36.605Z,5.90
2019-03-11T22:46:05.803Z,5.90
2019-03-11T22:48:34.590Z,5.80
2019-03-11T22:51:03.551Z,5.80
2019-03-11T22:53:32.366Z,5.80
2019-03-11T22:56:01.173Z,5.80
2019-03-11T22:58:29.979Z,5.80
2019-03-11T23:01:02.018Z,5.80
2019-03-11T23:03:30.963Z,5.80
2019-03-11T23:05:59.911Z,5.80
2019-03-11T23:08:28.917Z,5.80
2019-03-11T23:10:57.729Z,5.80
2019-03-11T23:13:26.857Z,5.70
2019-03-11T23:15:55.801Z,5.80
2019-03-11T23:18:24.660Z,5.70
2019-03-11T23:20:53.427Z,5.70
2019-03-11T23:23:22.426Z,5.80
2019-03-11T23:25:51.199Z,5.80
2019-03-11T23:28:20.177Z,5.70
2019-03-11T23:30:49.043Z,5.80
2019-03-11T23:33:17.959Z,5.80
2019-03-11T23:35:46.991Z,5.80
2019-03-11T23:38:15.874Z,6.60
2019-03-11T23:40:45.000Z,5.80
2019-03-11T23:43:13.945Z,5.80
2019-03-11T23:45:42.736Z,5.80
2019-03-11T23:48:11.924Z,5.80
2019-03-11T23:50:40.788Z,5.80
2019-03-11T23:53:09.583Z,5.80
2019-03-11T23:55:38.446Z,5.80
2019-03-11T23:58:07.308Z,5.90
